Decoded Metar for CYZU (WHITECOURT in AB, CANADA) (IATA:YZU) | Meteo·Mobile Aviation Weather
aviador You're here:

CYZU Decoded Metar

WHITECOURT in AB, CANADA
Report Time2019-02-16 16:00:00
UTC Time2019-02-16 17:10:22
Flight Rules Old
Wind310° at 11 kt
W.Decomp.*RWY 29: 11.0 kt HW 0.2 kt RCW
W.Rank310° ranks 3
Current wind is above 310° avg. (8.9)
Visibility9656 m
Phenomena:Light Snow
Clouds:Broken 052 Hf
Overcast 065 Hf
Expected CloudBase > 1,200 ft AGL from Temp-Dew spread
Ceiling5,200 ft
Temp-18°C (ISA -28)
Dew Point-21°C (78% RH)
AAT-25.6°C
QNH1017 hPa
Density Alt-1,066 ft
Elevation2,575 ft
Report Wrong Elevation
Raw Report
CYZU 161600Z 31011KT 6SM -SN BKN052 OVC065 M18/M21 A3003 RMK
SC5SC3 SLP242=

Extra information for CYZU:More info

Metar Taf Metar & Taf Last 4 Metars F.Rules Stats Wind Profile Meteogram Temp Stats Airport Information Weather charts Add Link Nearby VenuesMetar ALERT Operation Metar Decoded Social comments